createdAt,value
2018-11-14T00:00:25.613Z,0
2018-11-14T00:01:10.988Z,0
2018-11-14T00:02:11.007Z,0
2018-11-14T00:04:10.800Z,0
2018-11-14T00:06:11.046Z,0
2018-11-14T00:07:10.575Z,0
2018-11-14T00:08:11.092Z,0
2018-11-14T00:09:25.289Z,0
2018-11-14T00:10:11.376Z,0
2018-11-14T00:11:10.914Z,0
2018-11-14T00:12:10.926Z,0
2018-11-14T00:13:10.938Z,0
2018-11-14T00:14:10.919Z,0
2018-11-14T00:15:10.945Z,0
2018-11-14T00:16:25.900Z,0
2018-11-14T00:17:10.991Z,0
2018-11-14T00:18:25.676Z,0
2018-11-14T00:19:11.281Z,0
2018-11-14T00:20:11.072Z,0
2018-11-14T00:21:25.701Z,0
2018-11-14T00:22:11.322Z,0
2018-11-14T00:23:11.107Z,0
2018-11-14T00:24:10.860Z,0
2018-11-14T00:25:10.894Z,0
2018-11-14T00:26:11.394Z,0
2018-11-14T00:27:10.908Z,0
2018-11-14T00:29:11.193Z,0
2018-11-14T00:30:11.231Z,0
2018-11-14T00:31:11.476Z,0
2018-11-14T00:32:11.493Z,0
2018-11-14T00:33:11.867Z,0
2018-11-14T00:34:11.308Z,0
2018-11-14T00:35:11.334Z,0
2018-11-14T00:36:11.560Z,0
2018-11-14T00:38:11.080Z,0
2018-11-14T00:40:25.793Z,0
2018-11-14T00:41:11.401Z,0
2018-11-14T00:42:11.715Z,0
2018-11-14T00:43:11.164Z,0
2018-11-14T00:44:11.745Z,0
2018-11-14T00:45:11.462Z,0
2018-11-14T00:46:11.752Z,0
2018-11-14T00:47:11.769Z,0
2018-11-14T00:48:26.195Z,0
2018-11-14T00:49:11.829Z,0
2018-11-14T00:50:11.556Z,0
2018-11-14T00:51:11.593Z,0
2018-11-14T00:52:11.840Z,0
2018-11-14T00:53:26.554Z,0
2018-11-14T00:54:11.896Z,0
2018-11-14T00:55:11.675Z,0
2018-11-14T00:56:26.310Z,0
2018-11-14T00:57:11.946Z,0
2018-11-14T00:58:11.975Z,0
2018-11-14T00:59:11.741Z,0
2018-11-14T01:00:26.411Z,0
2018-11-14T01:02:27.198Z,0
2018-11-14T01:03:12.140Z,0
2018-11-14T01:04:26.477Z,0
2018-11-14T01:05:11.828Z,0
2018-11-14T01:07:11.859Z,0
2018-11-14T01:08:11.912Z,0
2018-11-14T01:09:26.796Z,0
2018-11-14T01:10:11.890Z,0
2018-11-14T01:11:12.207Z,0
2018-11-14T01:12:12.641Z,0
2018-11-14T01:13:12.558Z,0
2018-11-14T01:14:12.240Z,0
2018-11-14T01:15:12.074Z,0
2018-11-14T01:16:12.253Z,0
2018-11-14T01:17:26.894Z,0
2018-11-14T01:18:12.529Z,0
2018-11-14T01:19:12.092Z,0
2018-11-14T01:20:12.105Z,0
2018-11-14T01:21:12.360Z,0
2018-11-14T01:22:12.168Z,0
2018-11-14T01:23:12.429Z,0
2018-11-14T01:24:26.806Z,0
2018-11-14T01:25:12.450Z,0
2018-11-14T01:26:12.702Z,0
2018-11-14T01:27:12.947Z,0
2018-11-14T01:28:12.471Z,0
2018-11-14T01:29:12.262Z,0
2018-11-14T01:30:12.264Z,0
2018-11-14T01:31:12.287Z,0
2018-11-14T01:32:12.553Z,0
2018-11-14T01:33:12.558Z,0
2018-11-14T01:34:27.431Z,0
2018-11-14T01:35:12.609Z,0
2018-11-14T01:36:12.373Z,0
2018-11-14T01:37:12.672Z,0
2018-11-14T01:38:12.726Z,0
2018-11-14T01:39:12.176Z,0
2018-11-14T01:40:27.346Z,0
2018-11-14T01:41:12.640Z,0
2018-11-14T01:42:12.716Z,0
2018-11-14T01:44:12.994Z,0
2018-11-14T01:46:12.555Z,0
2018-11-14T01:47:12.556Z,0
2018-11-14T01:48:12.591Z,0
2018-11-14T01:49:12.571Z,0
2018-11-14T01:50:27.268Z,0
2018-11-14T01:51:12.877Z,0
2018-11-14T01:52:27.549Z,0
2018-11-14T01:53:12.894Z,0
2018-11-14T01:55:12.936Z,0
2018-11-14T01:56:27.650Z,0
2018-11-14T01:57:27.396Z,0
2018-11-14T01:58:12.986Z,0
2018-11-14T01:59:13.023Z,0
2018-11-14T02:00:13.012Z,0
2018-11-14T02:01:12.851Z,0
2018-11-14T02:02:12.793Z,0
2018-11-14T02:03:13.117Z,0
2018-11-14T02:04:13.115Z,0
2018-11-14T02:05:27.777Z,0
2018-11-14T02:06:13.130Z,0
2018-11-14T02:07:13.133Z,0
2018-11-14T02:08:12.938Z,0
2018-11-14T02:09:12.920Z,0
2018-11-14T02:10:13.237Z,0
2018-11-14T02:11:12.700Z,0
2018-11-14T02:12:27.649Z,0
2018-11-14T02:13:27.897Z,0
2018-11-14T02:14:27.913Z,0
2018-11-14T02:15:13.104Z,0
2018-11-14T02:16:13.396Z,0
2018-11-14T02:17:28.009Z,0
2018-11-14T02:18:13.400Z,0
2018-11-14T02:19:13.351Z,0
2018-11-14T02:20:13.143Z,0
2018-11-14T02:21:13.155Z,0
2018-11-14T02:22:13.417Z,0
2018-11-14T02:23:13.438Z,0
2018-11-14T02:24:13.431Z,0
2018-11-14T02:25:13.489Z,0
2018-11-14T02:26:13.462Z,0
2018-11-14T02:27:13.519Z,0
2018-11-14T02:28:27.906Z,0
2018-11-14T02:29:13.540Z,0
2018-11-14T02:30:13.284Z,0
2018-11-14T02:31:13.295Z,0
2018-11-14T02:32:13.334Z,0
2018-11-14T02:33:13.593Z,0
2018-11-14T02:34:13.646Z,0
2018-11-14T02:35:13.613Z,0
2018-11-14T02:36:13.408Z,0
2018-11-14T02:37:13.399Z,0
2018-11-14T02:38:13.438Z,0
2018-11-14T02:39:13.685Z,0
2018-11-14T02:40:13.751Z,0
2018-11-14T02:41:13.752Z,0
2018-11-14T02:42:13.756Z,0
2018-11-14T02:43:13.502Z,0
2018-11-14T02:44:28.198Z,0
2018-11-14T02:45:13.873Z,0
2018-11-14T02:46:13.846Z,0
2018-11-14T02:47:13.565Z,0
2018-11-14T02:48:13.871Z,0
2018-11-14T02:49:13.855Z,0
2018-11-14T02:50:13.653Z,0
2018-11-14T02:51:13.927Z,0
2018-11-14T02:52:28.578Z,0
2018-11-14T02:53:13.930Z,0
2018-11-14T02:54:14.016Z,0
2018-11-14T02:55:28.642Z,0
2018-11-14T02:56:13.461Z,0
2018-11-14T02:57:13.769Z,0
2018-11-14T02:58:14.032Z,0
2018-11-14T02:59:28.719Z,0
2018-11-14T03:00:14.040Z,0
2018-11-14T03:01:13.805Z,0
2018-11-14T03:02:14.109Z,0
2018-11-14T03:03:13.861Z,0
2018-11-14T03:04:14.157Z,0
2018-11-14T03:05:14.133Z,0
2018-11-14T03:06:13.908Z,0
2018-11-14T03:07:13.905Z,0
2018-11-14T03:08:14.218Z,0
2018-11-14T03:09:28.333Z,0
2018-11-14T03:10:13.993Z,0
2018-11-14T03:11:14.301Z,0
2018-11-14T03:12:14.234Z,0
2018-11-14T03:13:14.045Z,0
2018-11-14T03:15:14.295Z,0
2018-11-14T03:16:29.003Z,0
2018-11-14T03:17:14.325Z,0
2018-11-14T03:18:14.365Z,0
2018-11-14T03:20:14.408Z,0
2018-11-14T03:21:29.082Z,0
2018-11-14T03:22:29.115Z,0
2018-11-14T03:23:14.472Z,0
2018-11-14T03:24:14.446Z,0
2018-11-14T03:25:28.864Z,0
2018-11-14T03:26:14.506Z,0
2018-11-14T03:27:14.529Z,0
2018-11-14T03:28:14.291Z,0
2018-11-14T03:29:29.188Z,0
2018-11-14T03:30:14.593Z,0
2018-11-14T03:31:29.237Z,0
2018-11-14T03:32:29.257Z,0
2018-11-14T03:33:14.358Z,0
2018-11-14T03:34:14.383Z,0
2018-11-14T03:35:14.413Z,0
2018-11-14T03:36:14.651Z,0
2018-11-14T03:37:14.687Z,0
2018-11-14T03:38:14.717Z,0
2018-11-14T03:39:29.352Z,0
2018-11-14T03:40:14.765Z,0
2018-11-14T03:41:29.390Z,0
2018-11-14T03:42:14.765Z,0
2018-11-14T03:43:14.893Z,0
2018-11-14T03:44:14.562Z,0
2018-11-14T03:45:14.873Z,0
2018-11-14T03:46:14.302Z,0
2018-11-14T03:47:29.518Z,0
2018-11-14T03:48:14.855Z,0
2018-11-14T03:49:14.953Z,0
2018-11-14T03:50:14.369Z,0
2018-11-14T03:51:14.688Z,0
2018-11-14T03:52:14.938Z,0
2018-11-14T03:53:14.700Z,0
2018-11-14T03:54:29.351Z,0
2018-11-14T03:55:14.958Z,0
2018-11-14T03:56:15.074Z,0
2018-11-14T03:57:14.755Z,0
2018-11-14T03:58:15.022Z,0
2018-11-14T03:59:14.783Z,0
2018-11-14T04:00:15.099Z,0
2018-11-14T04:01:29.728Z,0
2018-11-14T04:02:14.843Z,0
2018-11-14T04:03:29.792Z,0
2018-11-14T04:04:14.873Z,0
2018-11-14T04:05:14.990Z,0
2018-11-14T04:07:29.839Z,0
2018-11-14T04:08:14.954Z,0
2018-11-14T04:09:15.406Z,0
2018-11-14T04:10:15.234Z,0
2018-11-14T04:11:15.274Z,0
2018-11-14T04:12:15.255Z,0
2018-11-14T04:13:15.054Z,0
2018-11-14T04:14:15.290Z,0
2018-11-14T04:15:29.987Z,0
2018-11-14T04:16:15.348Z,0
2018-11-14T04:17:15.106Z,0
2018-11-14T04:18:15.354Z,0
2018-11-14T04:19:30.041Z,0
2018-11-14T04:20:15.423Z,0
2018-11-14T04:21:15.417Z,0
2018-11-14T04:22:15.472Z,0
2018-11-14T04:23:15.452Z,0
2018-11-14T04:24:15.243Z,0
2018-11-14T04:25:15.473Z,0
2018-11-14T04:26:15.514Z,0
2018-11-14T04:27:15.508Z,0
2018-11-14T04:28:15.310Z,0
2018-11-14T04:29:15.563Z,0
2018-11-14T04:30:15.616Z,0
2018-11-14T04:31:15.569Z,0
2018-11-14T04:32:15.389Z,0
2018-11-14T04:33:15.361Z,0
2018-11-14T04:34:30.290Z,0
2018-11-14T04:35:15.643Z,0
2018-11-14T04:36:15.697Z,0
2018-11-14T04:38:15.471Z,0
2018-11-14T04:39:15.465Z,0
2018-11-14T04:40:15.496Z,0
2018-11-14T04:41:30.398Z,0
2018-11-14T04:43:15.552Z,0
2018-11-14T04:44:30.442Z,0
2018-11-14T04:45:15.862Z,0
2018-11-14T04:46:15.857Z,0
2018-11-14T04:47:15.869Z,0
2018-11-14T04:48:16.472Z,0
2018-11-14T04:49:15.616Z,0
2018-11-14T04:50:15.661Z,0
2018-11-14T04:51:15.932Z,0
2018-11-14T04:52:16.033Z,0
2018-11-14T04:53:30.594Z,0
2018-11-14T04:54:15.993Z,0
2018-11-14T04:55:15.990Z,0
2018-11-14T04:56:15.756Z,0
2018-11-14T04:57:16.006Z,0
2018-11-14T04:58:16.116Z,0
2018-11-14T04:59:16.052Z,0
2018-11-14T05:00:16.069Z,0
2018-11-14T05:01:30.764Z,0
2018-11-14T05:02:16.267Z,0
2018-11-14T05:03:16.104Z,0
2018-11-14T05:04:16.147Z,0
2018-11-14T05:05:15.614Z,0
2018-11-14T05:06:30.847Z,0
2018-11-14T05:07:16.172Z,0
2018-11-14T05:08:16.231Z,0
2018-11-14T05:09:15.969Z,0
2018-11-14T05:11:30.905Z,0
2018-11-14T05:13:16.540Z,0
2018-11-14T05:14:16.334Z,0
2018-11-14T05:15:16.307Z,0
2018-11-14T05:16:16.323Z,0
2018-11-14T05:17:31.019Z,0
2018-11-14T05:18:16.357Z,0
2018-11-14T05:19:16.414Z,0
2018-11-14T05:20:16.399Z,0
2018-11-14T05:21:16.185Z,0
2018-11-14T05:22:30.813Z,0
2018-11-14T05:23:16.176Z,0
2018-11-14T05:24:16.218Z,0
2018-11-14T05:25:16.250Z,0
2018-11-14T05:26:16.225Z,0
2018-11-14T05:27:16.283Z,0
2018-11-14T05:28:16.520Z,0
2018-11-14T05:29:16.585Z,0
2018-11-14T05:30:16.307Z,0
2018-11-14T05:31:31.000Z,0
2018-11-14T05:32:16.325Z,0
2018-11-14T05:33:16.601Z,0
2018-11-14T05:34:16.650Z,0
2018-11-14T05:35:16.668Z,0
2018-11-14T05:36:16.703Z,0
2018-11-14T05:37:16.720Z,0
2018-11-14T05:38:31.365Z,0
2018-11-14T05:39:16.696Z,0
2018-11-14T05:40:17.442Z,0
2018-11-14T05:41:16.249Z,0
2018-11-14T05:42:16.834Z,0
2018-11-14T05:43:16.802Z,4
2018-11-14T05:44:16.577Z,0
2018-11-14T05:45:16.705Z,0
2018-11-14T05:46:16.550Z,4
2018-11-14T05:47:16.859Z,0
2018-11-14T05:48:30.987Z,4
2018-11-14T05:49:16.915Z,4
2018-11-14T05:51:16.898Z,4
2018-11-14T05:52:16.934Z,4
2018-11-14T05:53:16.697Z,4
2018-11-14T05:54:31.085Z,8
2018-11-14T05:55:17.008Z,8
2018-11-14T05:56:16.717Z,8
2018-11-14T05:57:31.648Z,12
2018-11-14T05:58:17.055Z,16
2018-11-14T05:59:17.038Z,20
2018-11-14T06:01:17.080Z,28
2018-11-14T06:02:17.114Z,28
2018-11-14T06:03:31.747Z,36
2018-11-14T06:04:17.106Z,40
2018-11-14T06:05:17.163Z,48
2018-11-14T06:06:17.144Z,52
2018-11-14T06:07:17.784Z,60
2018-11-14T06:08:16.920Z,72
2018-11-14T06:09:31.875Z,80
2018-11-14T06:10:16.956Z,88
2018-11-14T06:12:17.023Z,116
2018-11-14T06:13:31.912Z,132
2018-11-14T06:14:17.365Z,144
2018-11-14T06:16:17.335Z,180
2018-11-14T06:17:17.066Z,192
2018-11-14T06:18:17.334Z,212
2018-11-14T06:19:17.332Z,228
2018-11-14T06:20:17.383Z,256
2018-11-14T06:21:17.394Z,284
2018-11-14T06:22:17.451Z,316
2018-11-14T06:23:17.418Z,352
2018-11-14T06:24:17.478Z,388
2018-11-14T06:26:17.594Z,472
2018-11-14T06:27:17.219Z,516
2018-11-14T06:28:32.194Z,564
2018-11-14T06:29:17.558Z,600
2018-11-14T06:30:32.191Z,644
2018-11-14T06:31:32.234Z,636
2018-11-14T06:32:17.588Z,692
2018-11-14T06:33:17.613Z,736
2018-11-14T06:34:17.596Z,780
2018-11-14T06:35:17.613Z,812
2018-11-14T06:36:17.394Z,828
2018-11-14T06:37:17.664Z,796
2018-11-14T06:38:17.713Z,796
2018-11-14T06:39:17.463Z,908
2018-11-14T06:40:32.115Z,936
2018-11-14T06:41:32.477Z,1068
2018-11-14T06:42:17.210Z,1124
2018-11-14T06:43:17.779Z,1176
2018-11-14T06:44:17.773Z,1304
2018-11-14T06:45:17.818Z,1412
2018-11-14T06:46:17.790Z,1520
2018-11-14T06:48:17.569Z,1680
2018-11-14T06:49:17.352Z,1728
2018-11-14T06:50:17.531Z,1836
2018-11-14T06:51:17.655Z,1960
2018-11-14T06:52:17.624Z,2100
2018-11-14T06:53:17.935Z,2244
2018-11-14T06:54:17.919Z,2420
2018-11-14T06:55:17.996Z,2460
2018-11-14T06:56:32.644Z,2576
2018-11-14T06:57:32.770Z,2740
2018-11-14T06:58:32.676Z,2916
2018-11-14T06:59:18.349Z,3004
2018-11-14T07:00:17.800Z,3144
2018-11-14T07:01:18.031Z,3212
2018-11-14T07:02:18.089Z,3336
2018-11-14T07:03:32.304Z,3464
2018-11-14T07:04:18.109Z,3476
2018-11-14T07:05:18.902Z,3528
2018-11-14T07:06:18.155Z,3476
2018-11-14T07:07:17.872Z,3376
2018-11-14T07:08:32.839Z,3408
2018-11-14T07:09:17.908Z,3720
2018-11-14T07:10:17.943Z,3848
2018-11-14T07:11:18.113Z,4020
2018-11-14T07:12:17.735Z,4160
2018-11-14T07:13:32.923Z,4224
2018-11-14T07:14:18.261Z,4248
2018-11-14T07:15:18.292Z,4484
2018-11-14T07:16:18.052Z,4672
2018-11-14T07:17:18.402Z,4852
2018-11-14T07:18:18.099Z,4920
2018-11-14T07:19:18.077Z,4836
2018-11-14T07:20:18.127Z,5076
2018-11-14T07:21:18.106Z,5552
2018-11-14T07:23:18.448Z,5832
2018-11-14T07:24:18.201Z,6092
2018-11-14T07:25:18.454Z,6336
2018-11-14T07:26:18.450Z,6600
2018-11-14T07:28:18.491Z,6572
2018-11-14T07:29:33.193Z,7816
2018-11-14T07:30:18.615Z,7680
2018-11-14T07:31:32.940Z,7616
2018-11-14T07:32:18.665Z,7068
2018-11-14T07:33:18.572Z,6440
2018-11-14T07:34:18.609Z,6180
2018-11-14T07:35:18.624Z,6152
2018-11-14T07:36:18.667Z,6216
2018-11-14T07:37:18.679Z,6536
2018-11-14T07:38:18.422Z,6988
2018-11-14T07:39:18.440Z,7488
2018-11-14T07:40:18.693Z,7688
2018-11-14T07:41:18.226Z,7872
2018-11-14T07:42:18.482Z,6820
2018-11-14T07:43:18.757Z,6192
2018-11-14T07:44:33.465Z,6736
2018-11-14T07:45:18.787Z,6856
2018-11-14T07:46:18.846Z,6580
2018-11-14T07:47:18.694Z,6748
2018-11-14T07:48:18.850Z,7212
2018-11-14T07:49:19.014Z,6868
2018-11-14T07:50:18.921Z,6948
2018-11-14T07:51:18.665Z,6948
2018-11-14T07:52:18.665Z,6988
2018-11-14T07:53:19.041Z,6960
2018-11-14T07:54:18.683Z,6988
2018-11-14T07:55:18.737Z,7372
2018-11-14T07:56:18.974Z,8536
2018-11-14T07:57:18.760Z,9212
2018-11-14T07:58:18.807Z,8712
2018-11-14T07:59:19.169Z,8660
2018-11-14T08:01:33.730Z,7384
2018-11-14T08:02:19.190Z,7528
2018-11-14T08:03:19.100Z,8144
2018-11-14T08:04:19.160Z,7588
2018-11-14T08:05:19.154Z,7944
2018-11-14T08:06:19.216Z,7404
2018-11-14T08:07:19.205Z,7596
2018-11-14T08:08:19.697Z,6964
2018-11-14T08:09:19.209Z,7308
2018-11-14T08:10:19.281Z,7492
2018-11-14T08:11:19.015Z,7968
2018-11-14T08:12:19.281Z,9404
2018-11-14T08:13:19.276Z,9872
2018-11-14T08:14:19.358Z,9856
2018-11-14T08:15:19.062Z,8356
2018-11-14T08:16:33.764Z,10048
2018-11-14T08:17:19.376Z,9960
2018-11-14T08:18:19.142Z,9156
2018-11-14T08:19:19.539Z,8244
2018-11-14T08:20:19.147Z,9600
2018-11-14T08:21:19.460Z,9152
2018-11-14T08:22:19.473Z,8856
2018-11-14T08:23:19.512Z,9188
2018-11-14T08:24:34.146Z,10252
2018-11-14T08:25:19.547Z,8796
2018-11-14T08:26:34.179Z,9588
2018-11-14T08:28:34.237Z,8124
2018-11-14T08:29:19.591Z,7884
2018-11-14T08:30:19.144Z,8580
2018-11-14T08:31:19.608Z,8532
2018-11-14T08:32:34.061Z,9748
2018-11-14T08:33:19.385Z,7828
2018-11-14T08:34:34.326Z,7552
2018-11-14T08:35:19.447Z,7408
2018-11-14T08:36:19.744Z,9684
2018-11-14T08:39:19.807Z,9164
2018-11-14T08:40:19.818Z,8928
2018-11-14T08:41:34.480Z,9428
2018-11-14T08:42:19.830Z,10068
2018-11-14T08:43:34.503Z,10120
2018-11-14T08:44:19.593Z,7756
2018-11-14T08:46:19.883Z,8556
2018-11-14T08:47:19.957Z,9576
2018-11-14T08:48:34.609Z,10460
2018-11-14T08:49:19.969Z,10084
2018-11-14T08:51:20.015Z,10816
2018-11-14T08:52:19.999Z,8032
2018-11-14T08:53:20.066Z,9220
2018-11-14T08:54:19.519Z,8952
2018-11-14T08:55:19.834Z,8920
2018-11-14T08:56:19.816Z,7752
2018-11-14T08:57:19.611Z,8824
2018-11-14T08:58:34.809Z,10692
2018-11-14T08:59:20.148Z,10044
2018-11-14T09:00:34.830Z,7796
2018-11-14T09:02:34.886Z,9760
2018-11-14T09:03:19.969Z,7576
2018-11-14T09:04:49.566Z,7344
2018-11-14T09:05:20.264Z,7880
2018-11-14T09:06:20.253Z,8552
2018-11-14T09:07:20.285Z,8996
2018-11-14T09:08:20.351Z,8100
2018-11-14T09:09:20.342Z,8436
2018-11-14T09:10:20.121Z,8816
2018-11-14T09:11:21.011Z,8488
2018-11-14T09:12:20.640Z,8184
2018-11-14T09:13:20.399Z,7220
2018-11-14T09:14:20.548Z,7800
2018-11-14T09:15:20.690Z,7992
2018-11-14T09:16:20.463Z,7684
2018-11-14T09:17:20.250Z,9120
2018-11-14T09:18:35.423Z,6728
2018-11-14T09:19:49.835Z,5264
2018-11-14T09:20:20.312Z,5084
2018-11-14T09:21:20.299Z,5504
2018-11-14T09:23:20.619Z,4964
2018-11-14T09:24:20.639Z,6112
2018-11-14T09:25:20.668Z,4664
2018-11-14T09:26:35.309Z,4844
2018-11-14T09:27:20.445Z,5516
2018-11-14T09:28:20.694Z,5916
2018-11-14T09:29:35.184Z,5232
2018-11-14T09:30:20.513Z,5792
2018-11-14T09:31:20.766Z,6708
2018-11-14T09:32:20.266Z,6168
2018-11-14T09:33:20.896Z,5140
2018-11-14T09:34:20.863Z,5476
2018-11-14T09:35:20.597Z,4976
2018-11-14T09:37:20.735Z,5156
2018-11-14T09:38:20.952Z,5124
2018-11-14T09:39:35.605Z,5220
2018-11-14T09:40:20.694Z,6260
2018-11-14T09:41:21.377Z,7988
2018-11-14T09:42:20.971Z,6260
2018-11-14T09:43:20.716Z,7196
2018-11-14T09:44:20.771Z,6300
2018-11-14T09:45:35.424Z,8744
2018-11-14T09:46:21.082Z,7008
2018-11-14T09:47:20.834Z,8416
2018-11-14T09:48:21.100Z,6688
2018-11-14T09:49:21.684Z,7568
2018-11-14T09:50:21.124Z,6768
2018-11-14T09:51:35.816Z,6596
2018-11-14T09:52:21.167Z,6584
2018-11-14T09:53:21.155Z,7924
2018-11-14T09:54:21.187Z,8472
2018-11-14T09:55:21.253Z,6668
2018-11-14T09:56:21.046Z,6660
2018-11-14T09:57:21.288Z,6764
2018-11-14T09:58:21.285Z,7984
2018-11-14T09:59:21.063Z,7588
2018-11-14T10:00:21.324Z,6744
2018-11-14T10:01:20.819Z,6988
2018-11-14T10:02:21.400Z,7800
2018-11-14T10:03:36.123Z,7236
2018-11-14T10:05:21.183Z,7380
2018-11-14T10:06:21.444Z,7484
2018-11-14T10:07:36.115Z,7376
2018-11-14T10:08:21.211Z,6980
2018-11-14T10:09:21.268Z,7020
2018-11-14T10:10:21.543Z,7624
2018-11-14T10:12:21.604Z,7400
2018-11-14T10:13:36.226Z,7720
2018-11-14T10:14:21.617Z,7708
2018-11-14T10:15:36.446Z,7156
2018-11-14T10:16:36.316Z,6956
2018-11-14T10:17:21.415Z,6964
2018-11-14T10:18:21.712Z,6680
2018-11-14T10:19:21.713Z,6632
2018-11-14T10:20:21.709Z,6532
2018-11-14T10:21:21.763Z,6492
2018-11-14T10:22:21.737Z,6860
2018-11-14T10:23:36.184Z,6908
2018-11-14T10:24:21.815Z,6880
2018-11-14T10:25:36.472Z,6856
2018-11-14T10:26:21.567Z,6692
2018-11-14T10:27:21.888Z,6584
2018-11-14T10:28:21.622Z,6136
2018-11-14T10:29:36.558Z,6076
2018-11-14T10:30:21.876Z,6396
2018-11-14T10:31:21.960Z,6344
2018-11-14T10:32:36.592Z,6060
2018-11-14T10:33:36.643Z,6372
2018-11-14T10:34:36.663Z,6228
2018-11-14T10:35:36.703Z,6264
2018-11-14T10:36:22.114Z,6164
2018-11-14T10:37:21.778Z,6128
2018-11-14T10:38:22.065Z,5976
2018-11-14T10:39:36.486Z,6096
2018-11-14T10:40:21.865Z,6188
2018-11-14T10:41:36.802Z,6080
2018-11-14T10:43:22.197Z,6344
2018-11-14T10:44:22.171Z,6368
2018-11-14T10:45:22.206Z,6372
2018-11-14T10:46:22.224Z,6532
2018-11-14T10:47:22.036Z,6628
2018-11-14T10:48:22.024Z,6336
2018-11-14T10:49:22.024Z,6220
2018-11-14T10:50:22.039Z,6504
2018-11-14T10:51:22.305Z,6336
2018-11-14T10:52:22.206Z,6240
2018-11-14T10:53:22.373Z,6168
2018-11-14T10:54:37.037Z,6312
2018-11-14T10:55:22.429Z,6500
2018-11-14T10:56:37.074Z,6100
2018-11-14T10:57:22.469Z,5956
2018-11-14T10:59:36.609Z,5912
2018-11-14T11:00:21.745Z,5680
2018-11-14T11:01:22.248Z,5588
2018-11-14T11:02:37.196Z,5652
2018-11-14T11:03:22.312Z,5676
2018-11-14T11:05:22.369Z,6028
2018-11-14T11:06:22.622Z,5772
2018-11-14T11:08:23.129Z,5488
2018-11-14T11:09:22.404Z,5084
2018-11-14T11:10:22.761Z,5280
2018-11-14T11:11:22.483Z,4696
2018-11-14T11:13:22.846Z,4816
2018-11-14T11:14:22.808Z,5592
2018-11-14T11:15:22.535Z,5624
2018-11-14T11:16:22.824Z,4960
2018-11-14T11:17:22.846Z,5680
2018-11-14T11:18:22.888Z,5672
2018-11-14T11:19:22.896Z,5640
2018-11-14T11:20:22.895Z,5420
2018-11-14T11:22:22.685Z,5228
2018-11-14T11:23:37.965Z,5264
2018-11-14T11:24:22.738Z,5664
2018-11-14T11:25:37.639Z,5984
2018-11-14T11:26:37.669Z,6168
2018-11-14T11:27:37.448Z,6776
2018-11-14T11:28:23.056Z,6860
2018-11-14T11:29:23.093Z,6888
2018-11-14T11:30:37.814Z,6572
2018-11-14T11:31:23.095Z,6632
2018-11-14T11:32:23.190Z,6432
2018-11-14T11:33:23.137Z,6232
2018-11-14T11:34:23.193Z,6112
2018-11-14T11:35:23.177Z,6084
2018-11-14T11:36:23.238Z,5760
2018-11-14T11:37:22.992Z,4696
2018-11-14T11:38:23.490Z,4424
2018-11-14T11:39:23.262Z,4804
2018-11-14T11:42:37.717Z,3348
2018-11-14T11:43:23.384Z,3620
2018-11-14T11:44:37.805Z,4048
2018-11-14T11:45:23.131Z,4120
2018-11-14T11:46:22.888Z,4932
2018-11-14T11:47:23.155Z,4972
2018-11-14T11:48:23.480Z,5116
2018-11-14T11:49:23.482Z,5308
2018-11-14T11:50:23.234Z,5596
2018-11-14T11:51:22.749Z,5588
2018-11-14T11:52:23.259Z,5656
2018-11-14T11:53:23.054Z,5416
2018-11-14T11:55:23.342Z,5016
2018-11-14T11:56:23.336Z,5192
2018-11-14T11:57:23.405Z,5192
2018-11-14T11:58:38.321Z,4876
2018-11-14T11:59:23.818Z,4612
2018-11-14T12:00:24.727Z,4328
2018-11-14T12:01:23.696Z,4432
2018-11-14T12:02:24.481Z,4688
2018-11-14T12:03:23.740Z,4872
2018-11-14T12:05:23.800Z,5212
2018-11-14T12:07:23.960Z,6432
2018-11-14T12:08:23.863Z,6168
2018-11-14T12:09:38.281Z,5852
2018-11-14T12:11:23.936Z,5520
2018-11-14T12:12:23.797Z,5424
2018-11-14T12:13:38.769Z,5444
2018-11-14T12:14:38.651Z,5340
2018-11-14T12:16:24.013Z,5204
2018-11-14T12:17:38.782Z,5196
2018-11-14T12:18:23.853Z,5132
2018-11-14T12:19:24.151Z,5188
2018-11-14T12:20:24.120Z,5416
2018-11-14T12:21:24.094Z,5296
2018-11-14T12:22:24.152Z,5016
2018-11-14T12:23:24.345Z,5188
2018-11-14T12:24:38.847Z,5708
2018-11-14T12:25:24.215Z,5828
2018-11-14T12:26:24.210Z,5828
2018-11-14T12:27:24.366Z,5892
2018-11-14T12:28:24.260Z,6532
2018-11-14T12:29:38.953Z,6328
2018-11-14T12:30:24.657Z,6264
2018-11-14T12:31:24.735Z,6112
2018-11-14T12:32:24.359Z,6108
2018-11-14T12:33:24.336Z,6344
2018-11-14T12:34:24.246Z,6040
2018-11-14T12:35:24.935Z,5324
2018-11-14T12:36:24.436Z,5360
2018-11-14T12:37:24.417Z,5376
2018-11-14T12:38:24.441Z,5320
2018-11-14T12:39:23.970Z,5072
2018-11-14T12:40:24.495Z,4944
2018-11-14T12:41:39.187Z,4852
2018-11-14T12:42:24.280Z,4800
2018-11-14T12:43:24.584Z,4748
2018-11-14T12:44:39.218Z,4736
2018-11-14T12:45:24.764Z,4720
2018-11-14T12:46:24.621Z,4572
2018-11-14T12:47:24.637Z,4452
2018-11-14T12:48:24.642Z,4196
2018-11-14T12:49:39.352Z,3984
2018-11-14T12:50:24.680Z,4056
2018-11-14T12:51:24.748Z,4248
2018-11-14T12:53:24.761Z,4512
2018-11-14T12:54:24.535Z,4144
2018-11-14T12:55:24.782Z,3376
2018-11-14T12:56:24.836Z,3088
2018-11-14T12:57:24.576Z,2924
2018-11-14T12:58:39.635Z,2764
2018-11-14T13:00:24.632Z,2884
2018-11-14T13:01:39.593Z,2992
2018-11-14T13:02:24.664Z,3028
2018-11-14T13:03:24.728Z,3068
2018-11-14T13:04:24.962Z,3204
2018-11-14T13:05:25.031Z,3336
2018-11-14T13:06:25.028Z,3464
2018-11-14T13:07:25.061Z,3628
2018-11-14T13:08:25.050Z,3504
2018-11-14T13:09:24.808Z,3636
2018-11-14T13:10:39.507Z,3712
2018-11-14T13:11:24.602Z,3440
2018-11-14T13:12:24.923Z,3496
2018-11-14T13:13:25.194Z,3540
2018-11-14T13:14:24.649Z,3508
2018-11-14T13:15:24.964Z,3396
2018-11-14T13:16:39.613Z,3264
2018-11-14T13:17:39.637Z,3056
2018-11-14T13:18:25.266Z,2896
2018-11-14T13:19:25.260Z,2788
2018-11-14T13:20:25.064Z,2812
2018-11-14T13:21:25.304Z,2812
2018-11-14T13:22:25.364Z,2856
2018-11-14T13:23:40.027Z,2892
2018-11-14T13:24:25.385Z,2816
2018-11-14T13:25:25.134Z,2816
2018-11-14T13:26:25.403Z,2872
2018-11-14T13:27:25.475Z,2940
2018-11-14T13:28:25.463Z,2948
2018-11-14T13:29:25.511Z,2888
2018-11-14T13:30:25.492Z,2812
2018-11-14T13:31:25.544Z,2728
2018-11-14T13:32:39.925Z,2644
2018-11-14T13:33:54.860Z,2648
2018-11-14T13:34:25.757Z,2696
2018-11-14T13:35:26.213Z,2728
2018-11-14T13:36:25.118Z,2724
2018-11-14T13:37:25.619Z,2788
2018-11-14T13:38:25.417Z,2864
2018-11-14T13:39:25.678Z,3024
2018-11-14T13:40:25.697Z,3204
2018-11-14T13:41:25.482Z,3288
2018-11-14T13:42:25.813Z,3396
2018-11-14T13:43:26.163Z,3408
2018-11-14T13:45:25.541Z,3600
2018-11-14T13:46:25.843Z,3508
2018-11-14T13:47:25.560Z,3464
2018-11-14T13:49:40.872Z,3512
2018-11-14T13:50:26.838Z,3476
2018-11-14T13:51:25.903Z,3820
2018-11-14T13:52:25.957Z,3736
2018-11-14T13:53:25.722Z,3636
2018-11-14T13:54:40.626Z,3548
2018-11-14T13:55:26.000Z,3624
2018-11-14T13:56:25.994Z,3560
2018-11-14T13:57:26.058Z,3288
2018-11-14T13:58:26.085Z,3136
2018-11-14T13:59:25.843Z,3156
2018-11-14T14:00:26.091Z,3032
2018-11-14T14:01:26.744Z,2964
2018-11-14T14:03:40.792Z,2896
2018-11-14T14:05:26.203Z,2952
2018-11-14T14:06:40.870Z,3052
2018-11-14T14:07:26.232Z,2956
2018-11-14T14:08:26.011Z,2964
2018-11-14T14:10:26.100Z,2836
2018-11-14T14:11:26.077Z,2820
2018-11-14T14:12:26.076Z,2768
2018-11-14T14:13:26.093Z,2704
2018-11-14T14:14:26.406Z,2636
2018-11-14T14:16:26.416Z,2492
2018-11-14T14:17:26.200Z,2436
2018-11-14T14:18:25.940Z,2372
2018-11-14T14:19:26.463Z,2316
2018-11-14T14:20:26.227Z,2248
2018-11-14T14:21:26.529Z,2188
2018-11-14T14:22:26.135Z,2128
2018-11-14T14:23:26.607Z,2060
2018-11-14T14:24:26.556Z,1988
2018-11-14T14:25:26.617Z,1936
2018-11-14T14:26:26.333Z,1884
2018-11-14T14:27:26.655Z,1848
2018-11-14T14:28:26.633Z,1796
2018-11-14T14:29:41.065Z,1724
2018-11-14T14:30:26.662Z,1664
2018-11-14T14:31:26.688Z,1596
2018-11-14T14:32:26.738Z,1540
2018-11-14T14:33:25.956Z,1500
2018-11-14T14:34:26.758Z,1460
2018-11-14T14:35:26.796Z,1416
2018-11-14T14:36:56.090Z,1352
2018-11-14T14:37:26.570Z,1328
2018-11-14T14:38:26.593Z,1284
2018-11-14T14:41:26.868Z,1156
2018-11-14T14:42:26.926Z,1116
2018-11-14T14:43:26.901Z,1080
2018-11-14T14:44:26.705Z,1036
2018-11-14T14:45:41.630Z,976
2018-11-14T14:46:41.625Z,936
2018-11-14T14:47:41.676Z,896
2018-11-14T14:48:26.485Z,868
2018-11-14T14:49:27.051Z,828
2018-11-14T14:50:27.064Z,796
2018-11-14T14:51:41.753Z,748
2018-11-14T14:52:41.771Z,708
2018-11-14T14:53:27.096Z,684